Time;durP1;ratioP1;P1;durP2;ratioP2;P2;SDS_P1;SDS_P2;PMS_P1;PMS_P2;Temp;Humidity;BMP_temperature;BMP_pressure;BME280_temperature;BME280_humidity;BME280_pressure;Samples;Min_cycle;Max_cycle;Signal;HPM_P1;HPM_P2
2024/02/08 00:00:27;;;;;;;10.13;3.22;;;4.70;93.50;;;;;;5074574;28;20048;-37
2024/02/08 00:02:52;;;;;;;11.20;3.45;;;4.70;93.50;;;;;;5074333;28;20522;-37
2024/02/08 00:05:18;;;;;;;7.82;2.85;;;4.70;93.40;;;;;;5074237;28;20038;-38
2024/02/08 00:07:44;;;;;;;12.85;3.20;;;4.70;93.40;;;;;;5074388;28;20028;-36
2024/02/08 00:10:09;;;;;;;11.13;2.95;;;4.70;93.50;;;;;;5074445;28;20035;-38
2024/02/08 00:12:39;;;;;;;10.80;3.30;;;4.70;93.40;;;;;;5074301;28;20453;-39
2024/02/08 00:15:09;;;;;;;9.55;3.28;;;4.60;93.40;;;;;;5074217;28;20025;-38
2024/02/08 00:17:35;;;;;;;6.90;2.70;;;4.60;93.50;;;;;;5074365;28;20024;-38
2024/02/08 00:20:01;;;;;;;9.57;2.78;;;4.60;93.50;;;;;;5074132;28;20430;-37
2024/02/08 00:22:26;;;;;;;10.18;3.08;;;4.60;93.50;;;;;;5074189;28;20494;-37
2024/02/08 00:24:55;;;;;;;9.70;2.75;;;4.60;93.50;;;;;;5073944;28;20078;-37
2024/02/08 00:27:21;;;;;;;9.63;2.90;;;4.70;93.60;;;;;;5073985;28;20077;-37
2024/02/08 00:29:47;;;;;;;7.45;2.60;;;4.70;93.60;;;;;;5074295;28;20028;-37
2024/02/08 00:32:13;;;;;;;12.48;3.20;;;4.70;93.60;;;;;;5073945;28;20025;-39
2024/02/08 00:34:40;;;;;;;8.40;2.70;;;4.70;93.60;;;;;;5073757;28;20585;-37
2024/02/08 00:37:07;;;;;;;9.55;2.40;;;4.80;93.60;;;;;;5074127;28;20388;-38
2024/02/08 00:39:32;;;;;;;7.70;3.42;;;4.80;93.60;;;;;;5074265;28;20102;-38
2024/02/08 00:41:58;;;;;;;10.52;3.20;;;4.80;93.60;;;;;;5073879;28;20350;-36
2024/02/08 00:44:27;;;;;;;9.98;2.72;;;4.80;93.60;;;;;;5073472;28;20473;-37
2024/02/08 00:46:54;;;;;;;12.27;2.97;;;4.80;93.50;;;;;;5073867;28;20434;-38
2024/02/08 00:49:21;;;;;;;9.23;2.83;;;4.80;93.50;;;;;;5073725;28;20023;-39
2024/02/08 00:51:49;;;;;;;10.38;2.30;;;4.70;93.50;;;;;;5072661;28;20035;-36
2024/02/08 00:54:15;;;;;;;10.65;2.42;;;4.70;93.50;;;;;;5073739;28;20461;-38
2024/02/08 00:56:42;;;;;;;8.15;2.90;;;4.70;93.50;;;;;;5073640;28;20044;-39
2024/02/08 00:59:08;;;;;;;9.63;2.83;;;4.70;93.50;;;;;;5073767;28;20052;-36
2024/02/08 01:01:34;;;;;;;7.95;2.45;;;4.80;93.50;;;;;;5073577;28;20032;-39
2024/02/08 01:03:59;;;;;;;9.73;2.30;;;4.80;93.50;;;;;;5073580;28;20381;-35
2024/02/08 01:06:26;;;;;;;8.63;2.42;;;4.80;93.50;;;;;;5073268;28;20416;-38
2024/02/08 01:08:54;;;;;;;10.13;2.38;;;4.80;93.50;;;;;;5073603;28;20271;-41
2024/02/08 01:11:19;;;;;;;9.02;2.22;;;4.90;93.50;;;;;;5073466;28;20037;-38
2024/02/08 01:13:45;;;;;;;8.80;2.42;;;4.90;93.50;;;;;;5073169;28;20020;-40
2024/02/08 01:16:11;;;;;;;10.57;2.53;;;4.90;93.50;;;;;;5073098;28;20102;-37
2024/02/08 01:18:41;;;;;;;7.63;2.67;;;4.90;93.50;;;;;;5073476;28;20462;-37
2024/02/08 01:21:07;;;;;;;8.80;2.42;;;4.90;93.40;;;;;;5073135;28;20029;-37
2024/02/08 01:23:32;;;;;;;11.23;2.83;;;4.90;93.50;;;;;;5072873;28;20093;-38
2024/02/08 01:25:58;;;;;;;9.32;2.83;;;4.90;93.50;;;;;;5073281;28;20165;-38
2024/02/08 01:28:23;;;;;;;7.95;2.53;;;4.90;93.50;;;;;;5073150;28;20029;-37
2024/02/08 01:30:49;;;;;;;8.70;2.35;;;4.90;93.50;;;;;;5073101;28;20485;-39
2024/02/08 01:33:15;;;;;;;8.07;2.75;;;4.90;93.50;;;;;;5072715;28;20028;-39
2024/02/08 01:35:40;;;;;;;9.73;2.92;;;4.90;93.50;;;;;;5072581;28;20040;-36
2024/02/08 01:38:09;;;;;;;9.98;2.45;;;4.80;93.40;;;;;;5073105;28;20043;-37
2024/02/08 01:40:35;;;;;;;7.70;2.45;;;4.90;93.50;;;;;;5071201;28;20124;-37
2024/02/08 01:43:00;;;;;;;7.28;2.00;;;4.90;93.50;;;;;;5072793;28;20020;-39
2024/02/08 01:45:32;;;;;;;5.93;2.00;;;4.90;93.50;;;;;;5072491;28;20028;-37
2024/02/08 01:48:09;;;;;;;8.10;2.05;;;4.90;93.50;;;;;;5071177;28;20461;-37
2024/02/08 01:50:40;;;;;;;7.60;2.10;;;4.90;93.50;;;;;;5072509;28;20028;-38
2024/02/08 01:53:13;;;;;;;9.13;2.42;;;4.90;93.50;;;;;;5072101;28;20055;-37
2024/02/08 01:55:39;;;;;;;10.53;1.77;;;4.90;93.50;;;;;;5072369;28;20020;-37
2024/02/08 01:58:09;;;;;;;6.65;1.90;;;4.90;93.50;;;;;;5072333;28;20099;-35
2024/02/08 02:00:38;;;;;;;11.07;1.95;;;4.90;93.40;;;;;;5072184;28;20080;-38
2024/02/08 02:03:12;;;;;;;9.02;1.98;;;4.90;93.40;;;;;;5072048;28;20104;-42
2024/02/08 02:05:42;;;;;;;8.43;2.22;;;4.90;93.50;;;;;;5072315;28;20388;-37
2024/02/08 02:08:11;;;;;;;11.25;1.77;;;4.90;93.50;;;;;;5072349;28;20052;-37
2024/02/08 02:10:38;;;;;;;9.57;2.22;;;4.90;93.50;;;;;;5072376;28;20021;-39
2024/02/08 02:13:08;;;;;;;7.00;1.88;;;4.90;93.50;;;;;;5071757;28;20023;-39
2024/02/08 02:15:35;;;;;;;9.43;2.03;;;4.90;93.50;;;;;;5072048;28;20362;-38
2024/02/08 02:18:03;;;;;;;7.13;1.80;;;4.90;93.50;;;;;;5071898;28;20026;-37
2024/02/08 02:20:32;;;;;;;6.07;1.80;;;4.90;93.50;;;;;;5072173;28;20384;-36
2024/02/08 02:22:59;;;;;;;7.65;2.25;;;4.90;93.50;;;;;;5072074;28;20016;-36
2024/02/08 02:25:26;;;;;;;6.07;2.08;;;4.90;93.50;;;;;;5072027;28;20044;-38
2024/02/08 02:27:54;;;;;;;6.03;1.88;;;4.90;93.50;;;;;;5071746;28;20033;-36
2024/02/08 02:30:21;;;;;;;7.50;2.83;;;4.90;93.50;;;;;;5071644;28;20099;-36
2024/02/08 02:32:52;;;;;;;5.50;1.85;;;4.90;93.50;;;;;;5071819;28;20488;-36
2024/02/08 02:35:18;;;;;;;7.88;1.90;;;5.00;93.50;;;;;;5071530;28;20047;-37
2024/02/08 02:37:49;;;;;;;7.18;1.63;;;4.90;93.50;;;;;;5071830;28;20105;-37
2024/02/08 02:40:24;;;;;;;7.18;1.90;;;4.90;93.50;;;;;;5071861;28;20086;-38
2024/02/08 02:42:58;;;;;;;8.60;2.00;;;5.00;93.50;;;;;;5071491;28;20039;-37
2024/02/08 02:45:28;;;;;;;5.90;1.80;;;5.00;93.50;;;;;;5071708;28;20491;-39
2024/02/08 02:47:55;;;;;;;9.20;1.75;;;5.00;93.50;;;;;;5070043;28;20023;-38
2024/02/08 02:50:21;;;;;;;7.47;2.17;;;5.00;93.50;;;;;;5071535;28;20032;-37
2024/02/08 02:52:47;;;;;;;6.30;1.70;;;5.00;93.50;;;;;;5071591;28;20055;-39
2024/02/08 02:55:13;;;;;;;6.60;1.55;;;5.00;93.50;;;;;;5071323;28;20032;-38
2024/02/08 02:57:41;;;;;;;8.23;1.90;;;5.00;93.50;;;;;;5071589;28;20074;-37
2024/02/08 03:00:24;;;;;;;6.13;2.17;;;5.00;93.40;;;;;;5071642;28;20023;-39
2024/02/08 03:02:57;;;;;;;5.97;1.60;;;5.00;93.40;;;;;;5071128;28;20029;-37
2024/02/08 03:05:23;;;;;;;8.75;1.98;;;5.00;93.40;;;;;;5070981;28;20035;-37
2024/02/08 03:07:50;;;;;;;8.02;2.42;;;5.10;93.50;;;;;;5071152;28;20438;-38
2024/02/08 03:10:25;;;;;;;8.95;2.10;;;5.10;93.50;;;;;;5071513;28;20029;-38
2024/02/08 03:12:51;;;;;;;8.15;2.63;;;5.10;93.50;;;;;;5071105;28;20370;-37
2024/02/08 03:15:18;;;;;;;8.60;2.33;;;5.10;93.50;;;;;;5071310;28;20013;-38
2024/02/08 03:17:45;;;;;;;6.45;2.17;;;5.10;93.40;;;;;;5071381;28;20017;-39
2024/02/08 03:20:16;;;;;;;10.27;2.22;;;5.10;93.40;;;;;;5071364;28;20020;-36
2024/02/08 03:22:43;;;;;;;6.85;2.08;;;5.10;93.70;;;;;;5071373;28;20032;-38
2024/02/08 03:25:14;;;;;;;7.60;2.70;;;5.10;93.40;;;;;;5070999;28;20108;-35
2024/02/08 03:27:41;;;;;;;5.93;1.90;;;5.10;93.50;;;;;;5070117;28;20020;-36
2024/02/08 03:30:19;;;;;;;7.60;2.00;;;5.10;93.40;;;;;;5071185;28;20031;-38
2024/02/08 03:32:53;;;;;;;6.88;2.33;;;5.20;93.40;;;;;;5071276;28;20374;-39
2024/02/08 03:35:27;;;;;;;9.98;2.10;;;5.10;93.40;;;;;;5070886;28;20048;-37
2024/02/08 03:38:02;;;;;;;10.15;2.50;;;5.10;93.40;;;;;;5071206;28;20505;-37
2024/02/08 03:40:32;;;;;;;7.50;1.65;;;5.10;93.40;;;;;;5071307;28;20016;-38
2024/02/08 03:42:58;;;;;;;8.93;2.10;;;5.10;93.40;;;;;;5071091;28;20047;-36
2024/02/08 03:45:27;;;;;;;5.55;1.90;;;5.10;93.40;;;;;;5069725;28;20024;-38
2024/02/08 03:48:04;;;;;;;6.35;1.83;;;5.10;93.40;;;;;;5070732;28;20024;-41
2024/02/08 03:50:33;;;;;;;7.68;2.63;;;5.10;93.40;;;;;;5069660;28;20482;-38
2024/02/08 03:53:12;;;;;;;10.95;2.10;;;5.20;93.40;;;;;;5070956;28;20465;-38
2024/02/08 03:55:38;;;;;;;8.45;2.15;;;5.20;93.40;;;;;;5070881;28;20017;-41
2024/02/08 03:58:06;;;;;;;8.02;1.45;;;5.10;93.40;;;;;;5071115;28;20460;-39
2024/02/08 04:00:33;;;;;;;12.45;2.17;;;5.10;93.40;;;;;;5070878;28;20028;-36
2024/02/08 04:03:03;;;;;;;8.32;1.77;;;5.10;93.40;;;;;;5070657;28;20071;-37
2024/02/08 04:08:32;;;;;;;6.13;2.08;;;5.10;93.40;;;;;;5071015;28;20515;-38
2024/02/08 04:54:42;;;;;;;8.90;2.45;;;5.30;93.40;;;;;;5073404;28;20035;-37
2024/02/08 04:57:08;;;;;;;11.13;2.28;;;5.30;93.40;;;;;;5073695;28;20384;-38
2024/02/08 04:59:36;;;;;;;15.65;2.47;;;5.30;93.40;;;;;;5073393;28;20020;-37
2024/02/08 05:02:02;;;;;;;8.73;2.28;;;5.20;93.50;;;;;;5073698;28;20070;-37
2024/02/08 05:04:28;;;;;;;6.28;2.25;;;5.20;93.50;;;;;;5073485;28;20029;-39
2024/02/08 05:06:55;;;;;;;8.25;2.50;;;5.20;93.50;;;;;;5073406;28;20457;-38
2024/02/08 05:09:21;;;;;;;4.32;1.90;;;5.20;93.50;;;;;;5073429;28;20024;-37
2024/02/08 05:11:52;;;;;;;8.43;2.08;;;5.20;93.50;;;;;;5073426;28;20024;-38
2024/02/08 05:14:22;;;;;;;8.70;2.50;;;5.10;93.50;;;;;;5073159;28;20028;-37
2024/02/08 05:16:54;;;;;;;10.00;2.22;;;5.20;93.50;;;;;;5073276;28;20026;-38
2024/02/08 05:19:23;;;;;;;6.82;1.95;;;5.10;93.50;;;;;;5073022;28;20082;-36
2024/02/08 05:21:50;;;;;;;7.72;2.30;;;5.10;93.50;;;;;;5073291;28;20104;-37
2024/02/08 05:24:15;;;;;;;8.80;2.30;;;5.10;93.50;;;;;;5073309;28;20538;-38
2024/02/08 05:26:41;;;;;;;5.30;1.90;;;5.10;93.50;;;;;;5073262;28;20021;-38
2024/02/08 05:29:08;;;;;;;9.75;2.20;;;5.10;93.50;;;;;;5072159;28;20067;-38
2024/02/08 05:31:39;;;;;;;8.57;2.10;;;5.20;93.50;;;;;;5072748;28;20039;-35
2024/02/08 05:34:07;;;;;;;8.07;2.25;;;5.10;93.40;;;;;;5071297;28;20493;-38
2024/02/08 05:36:33;;;;;;;5.13;1.90;;;5.20;93.50;;;;;;5072768;28;20096;-36
2024/02/08 05:38:58;;;;;;;8.65;2.30;;;5.10;93.40;;;;;;5073048;28;20150;-39
2024/02/08 05:41:24;;;;;;;9.23;2.25;;;5.10;93.40;;;;;;5072382;28;20021;-34
2024/02/08 05:43:51;;;;;;;10.25;2.33;;;5.10;93.40;;;;;;5072834;28;20033;-36
2024/02/08 05:46:29;;;;;;;9.32;2.33;;;5.10;93.70;;;;;;5072559;28;20036;-38
2024/02/08 05:49:11;;;;;;;7.40;2.50;;;5.10;93.40;;;;;;5072984;28;20078;-38
2024/02/08 05:51:42;;;;;;;11.27;2.53;;;5.20;93.40;;;;;;5072788;28;20036;-38
2024/02/08 05:54:08;;;;;;;6.10;1.95;;;5.20;93.40;;;;;;5072647;28;20027;-37
2024/02/08 05:56:39;;;;;;;6.38;2.03;;;5.10;93.40;;;;;;5071173;28;20024;-36
2024/02/08 05:59:08;;;;;;;8.73;2.38;;;5.10;93.40;;;;;;5072640;28;20385;-36
2024/02/08 06:01:44;;;;;;;9.98;2.38;;;5.10;93.30;;;;;;5072576;28;20028;-36
2024/02/08 06:04:13;;;;;;;13.43;2.42;;;5.10;93.30;;;;;;5072514;28;20408;-37
2024/02/08 06:06:51;;;;;;;7.45;2.33;;;5.10;93.30;;;;;;5072431;28;20032;-37
2024/02/08 06:09:42;;;;;;;7.93;2.40;;;5.10;93.30;;;;;;5072491;28;20035;-39
2024/02/08 06:12:08;;;;;;;9.02;2.58;;;5.10;93.30;;;;;;5072065;28;20037;-38
2024/02/08 06:14:42;;;;;;;9.52;2.55;;;5.10;93.30;;;;;;5072425;28;20032;-38
2024/02/08 06:17:08;;;;;;;10.32;2.90;;;5.10;93.30;;;;;;5072018;28;20025;-39
2024/02/08 06:19:39;;;;;;;10.07;2.70;;;5.10;93.30;;;;;;5072115;28;20020;-38
2024/02/08 06:22:20;;;;;;;8.13;2.42;;;5.10;93.30;;;;;;5072441;28;20511;-39
2024/02/08 06:24:46;;;;;;;8.55;2.22;;;5.20;93.30;;;;;;5071691;28;20017;-37
2024/02/08 06:27:15;;;;;;;9.05;2.17;;;5.20;93.20;;;;;;5072700;28;20422;-35
2024/02/08 06:29:49;;;;;;;5.93;2.22;;;5.20;93.20;;;;;;5072427;28;20540;-37
2024/02/08 06:35:08;;;;;;;6.68;2.15;;;5.20;93.20;;;;;;5072428;28;20056;-37
2024/02/08 06:37:44;;;;;;;6.78;2.30;;;5.10;93.10;;;;;;5072620;28;20099;-37
2024/02/08 06:40:37;;;;;;;8.77;2.85;;;5.20;93.10;;;;;;5072236;28;20100;-37
2024/02/08 06:48:36;;;;;;;7.15;2.42;;;5.20;93.00;;;;;;5072192;28;20547;-38
2024/02/08 07:37:25;;;;;;;6.78;3.28;;;5.00;92.90;;;;;;5071818;28;20040;-37
2024/02/08 07:40:00;;;;;;;9.07;3.30;;;5.00;92.60;;;;;;5072131;28;20024;-36
2024/02/08 07:42:29;;;;;;;6.85;3.45;;;5.10;92.50;;;;;;5071913;28;20449;-38
2024/02/08 07:45:04;;;;;;;12.18;3.78;;;5.10;92.50;;;;;;5072013;28;20510;-37
2024/02/08 07:47:36;;;;;;;10.35;3.67;;;5.10;92.50;;;;;;5071474;28;20029;-37
2024/02/08 07:50:09;;;;;;;16.13;4.30;;;5.10;92.50;;;;;;5071783;28;20473;-38
2024/02/08 07:52:55;;;;;;;13.02;4.10;;;5.10;92.40;;;;;;5073712;28;20823;-37
2024/02/08 07:55:46;;;;;;;8.35;4.55;;;5.10;92.50;;;;;;5075645;28;20082;-38
2024/02/08 07:58:10;;;;;;;8.43;4.15;;;5.20;92.40;;;;;;5075260;28;20465;-38
2024/02/08 08:03:09;;;;;;;7.20;4.07;;;5.20;92.40;;;;;;5075415;28;20146;-37
2024/02/08 08:05:42;;;;;;;7.78;4.03;;;5.20;92.40;;;;;;5075060;28;20021;-36
2024/02/08 08:08:24;;;;;;;8.60;3.90;;;5.20;92.40;;;;;;5074912;28;20024;-37
2024/02/08 08:10:56;;;;;;;8.38;3.97;;;5.20;92.40;;;;;;5075605;28;20500;-35
2024/02/08 08:13:50;;;;;;;7.10;3.92;;;5.30;92.40;;;;;;5074987;28;20032;-34
2024/02/08 08:18:57;;;;;;;8.23;4.13;;;5.30;92.40;;;;;;5075367;28;20408;-37
2024/02/08 08:21:58;;;;;;;11.55;4.28;;;5.40;92.40;;;;;;5075344;28;20040;-35
2024/02/08 08:24:25;;;;;;;6.93;3.70;;;5.40;92.40;;;;;;5074823;28;20111;-39
2024/02/08 08:27:06;;;;;;;11.40;4.80;;;5.40;92.40;;;;;;5074962;28;20029;-37
2024/02/08 08:29:44;;;;;;;10.48;4.82;;;5.50;92.30;;;;;;5075101;28;20488;-37
2024/02/08 08:37:44;;;;;;;11.82;5.30;;;5.50;92.20;;;;;;5074860;28;20111;-38
2024/02/08 08:42:58;;;;;;;9.20;4.85;;;5.60;92.10;;;;;;5074806;28;20105;-37
2024/02/08 08:45:24;;;;;;;10.23;5.07;;;5.60;92.10;;;;;;5074568;28;20197;-38
2024/02/08 08:48:00;;;;;;;9.85;5.20;;;5.70;92.10;;;;;;5074847;28;20024;-36
2024/02/08 08:50:31;;;;;;;14.27;5.18;;;5.70;92.10;;;;;;5074754;28;20097;-43
2024/02/08 08:52:58;;;;;;;13.77;5.30;;;5.70;92.10;;;;;;5074092;28;20032;-37
2024/02/08 08:55:24;;;;;;;11.77;4.80;;;5.70;92.10;;;;;;5074616;28;20161;-37
2024/02/08 08:58:00;;;;;;;12.20;5.03;;;5.70;92.00;;;;;;5074570;28;20059;-38
2024/02/08 09:00:32;;;;;;;8.93;4.65;;;5.70;92.00;;;;;;5074144;28;20032;-37
2024/02/08 09:03:04;;;;;;;13.38;5.00;;;5.70;92.00;;;;;;5073609;28;20020;-38
2024/02/08 09:05:36;;;;;;;11.45;4.93;;;5.80;92.00;;;;;;5073767;28;20032;-37
2024/02/08 09:08:09;;;;;;;9.75;4.97;;;5.70;91.90;;;;;;5074414;28;20428;-36
2024/02/08 09:10:35;;;;;;;;;;;5.80;91.90;;;;;;5074444;28;20111;-38
2024/02/08 09:13:07;;;;;;;13.25;4.85;;;5.80;91.90;;;;;;5074220;28;19926;-34
2024/02/08 09:15:41;;;;;;;14.60;4.28;;;5.80;91.90;;;;;;5074100;28;20100;-38
2024/02/08 09:18:10;;;;;;;11.68;4.50;;;5.80;91.80;;;;;;5074238;28;20491;-36
2024/02/08 09:20:37;;;;;;;12.63;4.25;;;5.90;91.90;;;;;;5073935;28;20025;-36
2024/02/08 09:23:12;;;;;;;10.73;4.07;;;5.90;91.90;;;;;;5073863;28;20033;-37
2024/02/08 09:25:44;;;;;;;10.10;4.25;;;6.00;91.90;;;;;;5074041;28;20119;-38
2024/02/08 09:28:23;;;;;;;8.15;3.47;;;6.00;91.90;;;;;;5073999;28;20335;-37
2024/02/08 09:30:56;;;;;;;8.80;3.95;;;6.00;91.70;;;;;;5073602;28;20074;-36
2024/02/08 09:33:30;;;;;;;11.95;3.78;;;6.00;91.80;;;;;;5073741;28;20033;-35
2024/02/08 09:35:59;;;;;;;10.68;4.18;;;6.00;91.80;;;;;;5073403;28;20040;-36
2024/02/08 09:38:28;;;;;;;11.02;4.10;;;6.00;91.90;;;;;;5073580;28;20039;-37
2024/02/08 09:40:59;;;;;;;8.90;4.07;;;6.00;91.80;;;;;;5072309;28;20070;-37
2024/02/08 09:43:29;;;;;;;8.65;3.72;;;6.00;91.80;;;;;;5073581;28;20035;-37
2024/02/08 09:46:10;;;;;;;8.57;3.85;;;6.00;91.80;;;;;;5073659;28;20040;-34
2024/02/08 09:48:43;;;;;;;10.65;3.97;;;6.00;91.80;;;;;;5073384;28;20040;-37
2024/02/08 09:51:22;;;;;;;9.45;3.80;;;6.10;91.70;;;;;;5073632;28;20111;-38
2024/02/08 09:53:52;;;;;;;10.25;3.70;;;6.10;91.70;;;;;;5073181;28;20033;-39
2024/02/08 09:56:37;;;;;;;8.00;3.70;;;6.20;91.70;;;;;;5073532;28;20021;-38
2024/02/08 09:59:07;;;;;;;8.70;3.92;;;6.30;91.80;;;;;;5073521;28;20411;-38
2024/02/08 10:01:56;;;;;;;10.38;3.42;;;6.40;91.70;;;;;;5073085;28;20028;-37
2024/02/08 10:04:25;;;;;;;9.15;3.75;;;6.60;91.60;;;;;;5073116;28;20037;-37
2024/02/08 10:06:59;;;;;;;7.35;3.65;;;6.50;91.50;;;;;;5073260;28;20047;-38
2024/02/08 10:09:40;;;;;;;12.80;4.50;;;6.60;91.50;;;;;;5073169;28;20044;-35
2024/02/08 10:12:11;;;;;;;8.80;3.67;;;6.60;91.50;;;;;;5071596;28;20043;-37
2024/02/08 10:14:41;;;;;;;11.70;4.40;;;6.60;91.50;;;;;;5072644;28;20071;-38
2024/02/08 10:17:40;;;;;;;12.27;4.00;;;6.60;91.40;;;;;;5072892;28;20537;-38
2024/02/08 10:23:09;;;;;;;10.73;4.10;;;6.60;91.40;;;;;;5073167;28;20036;-38
2024/02/08 10:28:23;;;;;;;12.98;4.47;;;6.50;91.40;;;;;;5072961;28;20039;-38
2024/02/08 10:30:57;;;;;;;9.77;4.57;;;6.50;91.40;;;;;;5071188;28;20028;-38
2024/02/08 10:33:24;;;;;;;9.23;4.10;;;6.50;91.40;;;;;;5072528;28;20024;-38
2024/02/08 10:36:18;;;;;;;12.30;4.78;;;6.50;91.40;;;;;;5071124;28;20044;-38
2024/02/08 10:38:56;;;;;;;;;;;6.50;91.40;;;;;;5073206;28;20101;-38
2024/02/08 10:41:57;;;;;;;9.75;4.25;;;6.50;91.40;;;;;;5072658;28;20324;-36
2024/02/08 10:44:29;;;;;;;13.35;4.57;;;6.50;91.40;;;;;;5072453;28;20055;-38
2024/02/08 10:47:05;;;;;;;12.32;4.68;;;6.50;91.40;;;;;;5072693;28;20063;-37
2024/02/08 10:49:35;;;;;;;8.57;4.13;;;6.50;91.30;;;;;;5072668;28;20384;-37
2024/02/08 10:52:02;;;;;;;10.40;4.63;;;6.50;91.40;;;;;;5072547;28;20082;-36
2024/02/08 10:54:39;;;;;;;9.50;4.28;;;6.50;91.40;;;;;;5072325;28;20039;-37
2024/02/08 10:57:27;;;;;;;10.57;4.30;;;6.50;91.40;;;;;;5071111;28;20032;-37
2024/02/08 10:59:58;;;;;;;12.00;4.50;;;6.50;91.50;;;;;;5072539;28;20024;-37
2024/02/08 11:02:48;;;;;;;8.90;4.38;;;6.50;91.50;;;;;;5071905;28;20020;-35
2024/02/08 11:05:34;;;;;;;14.60;4.82;;;6.50;91.50;;;;;;5072044;28;20021;-36
2024/02/08 11:08:00;;;;;;;9.43;4.85;;;6.50;91.40;;;;;;5071704;28;20079;-37
2024/02/08 11:10:32;;;;;;;12.80;4.57;;;6.50;91.40;;;;;;5070470;28;20033;-36
2024/02/08 11:13:10;;;;;;;11.18;4.57;;;6.40;91.60;;;;;;5070241;28;20033;-37
2024/02/08 11:15:41;;;;;;;11.88;4.80;;;6.40;91.80;;;;;;5071944;28;20373;-37
2024/02/08 11:18:29;;;;;;;12.05;5.25;;;6.40;91.80;;;;;;5072003;28;20021;-36
2024/02/08 11:21:05;;;;;;;16.77;5.82;;;6.40;91.80;;;;;;5072002;28;20024;-37
2024/02/08 11:23:32;;;;;;;11.95;5.07;;;6.40;91.70;;;;;;5071890;28;20029;-38
2024/02/08 11:26:09;;;;;;;12.98;5.63;;;6.40;91.70;;;;;;5072097;28;20107;-38
2024/02/08 11:28:54;;;;;;;10.52;5.15;;;6.50;91.60;;;;;;5075686;28;20082;-36
2024/02/08 11:31:32;;;;;;;12.52;5.03;;;6.50;91.60;;;;;;5076250;28;20107;-38
2024/02/08 11:34:13;;;;;;;14.85;5.55;;;6.40;91.60;;;;;;5075970;28;20464;-38
2024/02/08 11:36:42;;;;;;;11.20;4.95;;;6.40;91.60;;;;;;5075896;28;20071;-37
2024/02/08 11:39:30;;;;;;;12.90;5.35;;;6.30;91.60;;;;;;5074786;28;20024;-38
2024/02/08 11:42:00;;;;;;;12.57;5.53;;;6.30;91.70;;;;;;5075721;28;20108;-37
2024/02/08 11:44:35;;;;;;;15.95;5.32;;;6.20;91.60;;;;;;5075794;28;20514;-37
2024/02/08 11:47:17;;;;;;;12.52;5.68;;;6.20;91.70;;;;;;5075812;28;20028;-33
2024/02/08 11:50:02;;;;;;;12.60;5.15;;;6.20;91.70;;;;;;5075691;28;20089;-37
2024/02/08 11:52:29;;;;;;;12.55;5.72;;;6.20;91.70;;;;;;5075472;28;20059;-37
2024/02/08 11:55:05;;;;;;;12.02;5.40;;;6.20;91.70;;;;;;5075846;28;20449;-35
2024/02/08 11:57:36;;;;;;;9.73;5.40;;;6.30;91.70;;;;;;5075744;28;20036;-36
2024/02/08 12:00:24;;;;;;;11.77;5.00;;;6.30;91.70;;;;;;5074632;28;20020;-37
2024/02/08 12:02:57;;;;;;;10.63;5.25;;;6.30;91.70;;;;;;5075554;28;20063;-39
2024/02/08 12:05:27;;;;;;;13.43;5.28;;;6.40;91.70;;;;;;5075118;28;20032;-37
2024/02/08 12:07:52;;;;;;;11.82;4.93;;;6.40;91.70;;;;;;5075768;28;20036;-38
2024/02/08 12:10:22;;;;;;;8.63;4.82;;;6.30;91.60;;;;;;5075505;28;20086;-37
2024/02/08 12:12:53;;;;;;;12.32;5.80;;;6.30;91.70;;;;;;5075087;28;20041;-36
2024/02/08 12:15:21;;;;;;;14.45;5.85;;;6.30;91.70;;;;;;5075103;28;20103;-36
2024/02/08 12:17:48;;;;;;;12.38;4.93;;;6.30;91.70;;;;;;5075302;28;20025;-35
2024/02/08 12:20:16;;;;;;;14.63;6.18;;;6.30;91.80;;;;;;5075194;28;20449;-37
2024/02/08 12:22:43;;;;;;;13.00;6.18;;;6.30;91.80;;;;;;5074829;28;20024;-38
2024/02/08 12:25:15;;;;;;;11.73;5.88;;;6.30;91.80;;;;;;5074963;28;20028;-37
2024/02/08 12:27:48;;;;;;;14.03;5.53;;;6.20;91.70;;;;;;5074868;28;20040;-38
2024/02/08 12:30:24;;;;;;;12.98;5.72;;;6.20;91.80;;;;;;5074690;28;20278;-36
2024/02/08 12:32:51;;;;;;;11.35;5.30;;;6.20;91.90;;;;;;5074452;28;20036;-36
2024/02/08 12:35:20;;;;;;;11.68;5.40;;;6.10;91.90;;;;;;5074478;28;20056;-37
2024/02/08 12:37:48;;;;;;;10.75;5.50;;;6.10;91.90;;;;;;5074458;28;20139;-36
2024/02/08 12:40:17;;;;;;;12.23;5.25;;;6.20;92.00;;;;;;5073629;28;20040;-39
2024/02/08 12:42:43;;;;;;;13.10;5.90;;;6.20;91.90;;;;;;5074866;28;20432;-34
2024/02/08 12:45:11;;;;;;;13.45;5.25;;;6.10;91.90;;;;;;5074449;28;20104;-37
2024/02/08 12:47:39;;;;;;;10.90;5.13;;;6.00;91.90;;;;;;5074483;28;20032;-37
2024/02/08 12:50:08;;;;;;;13.10;5.53;;;6.00;92.00;;;;;;5074555;28;20477;-37
2024/02/08 12:52:35;;;;;;;13.93;6.07;;;6.00;92.00;;;;;;5074567;28;20443;-36
2024/02/08 12:55:01;;;;;;;13.10;5.45;;;6.00;92.10;;;;;;5074274;28;20021;-37
2024/02/08 12:57:27;;;;;;;9.77;5.60;;;5.90;92.10;;;;;;5074450;28;20021;-35
2024/02/08 13:00:02;;;;;;;14.05;5.07;;;5.80;92.10;;;;;;5074332;28;20465;-37
2024/02/08 13:02:33;;;;;;;9.65;4.78;;;5.80;92.30;;;;;;5074394;28;20052;-37
2024/02/08 13:05:01;;;;;;;12.75;4.90;;;5.70;92.50;;;;;;5074268;28;20494;-37
2024/02/08 13:07:27;;;;;;;10.73;5.10;;;5.70;92.70;;;;;;5074567;28;20102;-36
2024/02/08 13:10:03;;;;;;;13.65;5.40;;;5.70;92.50;;;;;;5074096;28;20396;-37
2024/02/08 13:12:30;;;;;;;7.88;4.30;;;5.60;92.20;;;;;;5074398;28;20025;-36
2024/02/08 13:15:02;;;;;;;9.52;3.90;;;5.60;92.50;;;;;;5073997;28;20024;-36
2024/02/08 13:17:32;;;;;;;7.60;4.03;;;5.50;92.70;;;;;;5074286;28;20025;-35
2024/02/08 13:19:59;;;;;;;10.38;3.90;;;5.50;92.80;;;;;;5074414;28;20101;-36
2024/02/08 13:22:31;;;;;;;9.27;3.20;;;5.50;92.90;;;;;;5073918;28;20017;-35
2024/02/08 13:24:57;;;;;;;6.90;3.45;;;5.40;93.20;;;;;;5074100;28;20107;-35
2024/02/08 13:27:24;;;;;;;5.65;3.20;;;5.50;93.30;;;;;;5074297;28;20028;-33
2024/02/08 13:29:51;;;;;;;8.48;3.17;;;5.50;93.30;;;;;;5073713;28;20024;-36
2024/02/08 13:32:17;;;;;;;7.53;3.20;;;5.50;93.50;;;;;;5074211;28;20036;-34
2024/02/08 13:34:43;;;;;;;8.88;3.50;;;5.50;93.60;;;;;;5073452;28;20036;-36
2024/02/08 13:37:15;;;;;;;7.22;3.47;;;5.50;93.60;;;;;;5073608;28;20031;-36
2024/02/08 13:39:42;;;;;;;6.45;3.17;;;5.50;93.60;;;;;;5073934;28;20108;-36
2024/02/08 13:42:09;;;;;;;4.60;2.90;;;5.50;93.90;;;;;;5073938;28;20024;-37
2024/02/08 13:44:35;;;;;;;7.47;2.90;;;5.50;93.70;;;;;;5072011;28;20032;-36
2024/02/08 13:47:03;;;;;;;6.40;2.95;;;5.50;93.80;;;;;;5073428;28;20060;-37
2024/02/08 13:49:32;;;;;;;7.68;2.60;;;5.50;94.00;;;;;;5072585;28;20484;-35
2024/02/08 13:51:59;;;;;;;5.13;2.35;;;5.50;94.00;;;;;;5073577;28;20040;-36
2024/02/08 13:54:27;;;;;;;6.28;2.40;;;5.50;94.30;;;;;;5071849;28;20042;-35
2024/02/08 13:56:55;;;;;;;6.85;2.08;;;5.50;94.40;;;;;;5073459;28;20020;-34
2024/02/08 13:59:21;;;;;;;3.78;1.92;;;5.50;94.60;;;;;;5072136;28;20025;-36
2024/02/08 14:01:46;;;;;;;5.88;1.98;;;5.50;95.00;;;;;;5073051;28;20031;-36
2024/02/08 14:04:20;;;;;;;7.45;1.90;;;5.50;94.80;;;;;;5071746;28;20059;-33
2024/02/08 14:06:55;;;;;;;5.22;2.00;;;5.50;94.90;;;;;;5073134;28;20059;-36
2024/02/08 14:09:23;;;;;;;3.90;1.90;;;5.40;94.80;;;;;;5072917;28;20115;-36
2024/02/08 14:11:55;;;;;;;3.88;2.00;;;5.40;94.80;;;;;;5072851;28;20085;-36
2024/02/08 14:14:29;;;;;;;6.47;2.00;;;5.40;94.90;;;;;;5073041;28;20067;-36
2024/02/08 14:16:56;;;;;;;4.40;2.03;;;5.40;94.90;;;;;;5072770;28;20496;-36
2024/02/08 14:19:33;;;;;;;3.80;2.20;;;5.40;94.90;;;;;;5073199;28;20389;-37
2024/02/08 14:22:06;;;;;;;4.55;2.28;;;5.40;95.00;;;;;;5072851;28;20154;-35
2024/02/08 14:24:38;;;;;;;3.07;1.80;;;5.40;95.10;;;;;;5072622;28;20051;-36
2024/02/08 14:27:05;;;;;;;4.25;2.03;;;5.30;95.20;;;;;;5071349;28;20044;-36
2024/02/08 14:29:37;;;;;;;4.55;2.08;;;5.30;95.30;;;;;;5072558;28;20039;-38
2024/02/08 14:32:08;;;;;;;4.57;2.22;;;5.30;95.40;;;;;;5072992;28;20039;-36
2024/02/08 14:34:37;;;;;;;3.75;1.98;;;5.30;95.40;;;;;;5072252;28;20465;-37
2024/02/08 14:37:06;;;;;;;4.47;2.20;;;5.30;95.40;;;;;;5072429;28;20034;-37
2024/02/08 14:39:33;;;;;;;3.83;2.17;;;5.30;95.30;;;;;;5072489;28;20024;-37
2024/02/08 14:42:17;;;;;;;3.40;2.08;;;5.20;95.40;;;;;;5072647;28;20392;-39
2024/02/08 14:44:51;;;;;;;;;;;5.20;95.40;;;;;;5072938;28;20528;-37
2024/02/08 14:47:25;;;;;;;6.18;2.25;;;5.30;95.40;;;;;;5072644;28;20300;-36
2024/02/08 14:49:54;;;;;;;5.68;2.28;;;5.30;95.40;;;;;;5072279;28;20422;-36
2024/02/08 14:52:26;;;;;;;3.60;2.22;;;5.30;95.40;;;;;;5072079;28;20034;-36
2024/02/08 14:54:58;;;;;;;4.45;2.42;;;5.20;95.40;;;;;;5072422;28;20032;-38
2024/02/08 14:57:25;;;;;;;4.47;2.00;;;5.20;95.60;;;;;;5070964;28;20039;-36
2024/02/08 14:59:52;;;;;;;3.88;2.40;;;5.20;95.80;;;;;;5072114;28;20021;-37
2024/02/08 15:02:29;;;;;;;3.78;2.28;;;5.20;95.90;;;;;;5071868;28;20023;-36
2024/02/08 15:05:00;;;;;;;4.22;2.17;;;5.20;96.10;;;;;;5072113;28;20031;-35
2024/02/08 15:10:13;;;;;;;7.07;2.65;;;5.10;96.20;;;;;;5072035;28;20111;-37
2024/02/08 15:12:53;;;;;;;5.03;2.42;;;5.10;96.30;;;;;;5071952;28;20027;-36
2024/02/08 15:15:19;;;;;;;6.90;2.50;;;5.10;96.40;;;;;;5072080;28;20056;-36
2024/02/08 15:17:49;;;;;;;4.03;2.10;;;5.00;96.50;;;;;;5071983;28;20025;-36